Observation data for Tatum on 12/13/2019      Previous  Date       Current Mesonet Observations  Soil Data  Daily Summary Page  Observations in Plain Language
KTAT 130600Z 29012KT 08/M01 A3002 RMK A01 T00811010  RH  053%=      5-min Rain = 0
KTAT 130605Z 29013KT 08/M01 A3002 RMK A01 T00841012  RH  051%=      5-min Rain = 0
KTAT 130610Z 28015KT 09/M01 A3002 RMK A01 T00871013  RH  050%=      5-min Rain = 0
KTAT 130615Z 28018KT 09/M01 A3001 RMK A01 T00901013  RH  049%=      5-min Rain = 0
KTAT 130620Z 28020KT 09/M01 A3001 RMK A01 T00941013  RH  048%=      5-min Rain = 0
KTAT 130625Z 28021G26KT 10/M01 A3001 RMK A01 T00961014  RH  047%=      5-min Rain = 0
KTAT 130630Z 29023G28KT 10/M01 A3001 RMK A01 T00991014  RH  045%=      5-min Rain = 0
KTAT 130635Z 29023KT 10/M02 A3001 RMK A01 T00991015  RH  045%=      5-min Rain = 0
KTAT 130640Z 29020G25KT 10/M02 A3002 RMK A01 T00961015  RH  046%=      5-min Rain = 0
KTAT 130645Z 29017KT 09/M02 A3002 RMK A01 T00941015  RH  047%=      5-min Rain = 0
KTAT 130650Z 29015KT 09/M01 A3002 RMK A01 T00911014  RH  048%=      5-min Rain = 0
KTAT 130655Z 29015KT 09/M01 A3002 RMK A01 T00901014  RH  048%=      5-min Rain = 0
KTAT 130700Z 29015KT 09/M01 A3002 RMK A01 T00911014  RH  048%=      5-min Rain = 0
KTAT 130705Z 29014KT 09/M01 A3002 RMK A01 T00901014  RH  049%=      5-min Rain = 0
KTAT 130710Z 29014G19KT 09/M01 A3002 RMK A01 T00881013  RH  049%=      5-min Rain = 0
KTAT 130715Z 29015KT 09/M01 A3001 RMK A01 T00901013  RH  049%=      5-min Rain = 0
KTAT 130720Z 29018G23KT 10/M01 A3001 RMK A01 T00951013  RH  047%=      5-min Rain = 0
KTAT 130725Z 29020G26KT 10/M01 A3001 RMK A01 T01001014  RH  045%=      5-min Rain = 0
KTAT 130730Z 29022G27KT 10/M01 A3001 RMK A01 T01031014  RH  044%=      5-min Rain = 0
KTAT 130735Z 29023G28KT 10/M02 A3001 RMK A01 T01041015  RH  044%=      5-min Rain = 0
KTAT 130740Z 29022G27KT 10/M02 A3001 RMK A01 T01031015  RH  044%=      5-min Rain = 0
KTAT 130745Z 29021G26KT 10/M02 A3001 RMK A01 T01031015  RH  044%=      5-min Rain = 0
KTAT 130750Z 29022G28KT 10/M02 A3001 RMK A01 T01041016  RH  044%=      5-min Rain = 0
KTAT 130755Z 29020G26KT 10/M02 A30 RMK A01 T01031016  RH  044%=      5-min Rain = 0
KTAT 130800Z 29020G25KT 10/M02 A3001 RMK A01 T01021016  RH  044%=      5-min Rain = 0
KTAT 130805Z 29019G24KT 10/M02 A3001 RMK A01 T01021017  RH  044%=      5-min Rain = 0
KTAT 130810Z 29018G23KT 10/M02 A3001 RMK A01 T01011017  RH  044%=      5-min Rain = 0
KTAT 130815Z 29021G26KT 10/M02 A30 RMK A01 T01021018  RH  043%=      5-min Rain = 0
KTAT 130820Z 28022G27KT 10/M02 A30 RMK A01 T01041019  RH  042%=      5-min Rain = 0
KTAT 130825Z 28024G29KT 11/M02 A30 RMK A01 T01061021  RH  041%=      5-min Rain = 0
KTAT 130830Z 28022G27KT 11/M02 A30 RMK A01 T01071022  RH  041%=      5-min Rain = 0
KTAT 130835Z 28023G30KT 11/M02 A30 RMK A01 T01071022  RH  041%=      5-min Rain = 0
KTAT 130840Z 28024G30KT 11/M02 A30 RMK A01 T01101022  RH  040%=      5-min Rain = 0
KTAT 130845Z 28025G31KT 11/M02 A30 RMK A01 T01111022  RH  040%=      5-min Rain = 0
KTAT 130850Z 28023G29KT 11/M02 A3001 RMK A01 T01101021  RH  040%=      5-min Rain = 0
KTAT 130855Z 29022G29KT 11/M02 A3001 RMK A01 T01081021  RH  041%=      5-min Rain = 0
KTAT 130900Z 28020G25KT 11/M02 A3001 RMK A01 T01061020  RH  042%=      5-min Rain = 0
KTAT 130905Z 28021G28KT 11/M02 A3001 RMK A01 T01051020  RH  042%=      5-min Rain = 0
KTAT 130910Z 28019G24KT 10/M02 A3001 RMK A01 T01041019  RH  043%=      5-min Rain = 0
KTAT 130915Z 28018G23KT 10/M02 A3001 RMK A01 T01021019  RH  043%=      5-min Rain = 0
KTAT 130920Z 28017G24KT 10/M02 A30 RMK A01 T01011019  RH  044%=      5-min Rain = 0
KTAT 130925Z 28016G22KT 10/M02 A30 RMK A01 T01001018  RH  044%=      5-min Rain = 0
KTAT 130930Z 28016G21KT 10/M02 A30 RMK A01 T00991018  RH  044%=      5-min Rain = 0
KTAT 130935Z 28019G24KT 10/M02 A30 RMK A01 T01001018  RH  044%=      5-min Rain = 0
KTAT 130940Z 28019G26KT 10/M02 A3001 RMK A01 T01001018  RH  044%=      5-min Rain = 0
KTAT 130945Z 28020G26KT 10/M02 A30 RMK A01 T01001018  RH  044%=      5-min Rain = 0
KTAT 130950Z 28021G26KT 10/M02 A30 RMK A01 T01011018  RH  044%=      5-min Rain = 0
KTAT 130955Z 28021G27KT 10/M02 A3001 RMK A01 T01021018  RH  043%=      5-min Rain = 0
KTAT 131000Z 28021G27KT 10/M02 A30 RMK A01 T01021018  RH  043%=      5-min Rain = 0
KTAT 131005Z 28021KT 10/M02 A30 RMK A01 T01011018  RH  043%=      5-min Rain = 0
KTAT 131010Z 28021KT 10/M02 A2999 RMK A01 T01011018  RH  044%=      5-min Rain = 0
KTAT 131015Z 28022G28KT 10/M02 A2999 RMK A01 T01011018  RH  044%=      5-min Rain = 0
KTAT 131020Z 28020G25KT 10/M02 A2999 RMK A01 T01001018  RH  044%=      5-min Rain = 0
KTAT 131025Z 29020KT 10/M02 A2999 RMK A01 T00991018  RH  044%=      5-min Rain = 0
KTAT 131030Z 28020G25KT 10/M02 A2999 RMK A01 T00981018  RH  045%=      5-min Rain = 0
KTAT 131035Z 28020KT 10/M02 A30 RMK A01 T00981017  RH  045%=      5-min Rain = 0
KTAT 131040Z 28021G26KT 10/M02 A30 RMK A01 T00981018  RH  045%=      5-min Rain = 0
KTAT 131045Z 28021KT 10/M02 A30 RMK A01 T00981018  RH  045%=      5-min Rain = 0
KTAT 131050Z 29022KT 10/M02 A30 RMK A01 T00971017  RH  045%=      5-min Rain = 0
KTAT 131055Z 28023G29KT 10/M02 A30 RMK A01 T00981017  RH  045%=      5-min Rain = 0
KTAT 131100Z 28022G27KT 10/M02 A30 RMK A01 T00991017  RH  045%=      5-min Rain = 0
KTAT 131105Z 28021G26KT 10/M02 A2999 RMK A01 T00981018  RH  045%=      5-min Rain = 0
KTAT 131110Z 28020G25KT 10/M02 A2998 RMK A01 T00981018  RH  045%=      5-min Rain = 0
KTAT 131115Z 29020G25KT 10/M02 A2999 RMK A01 T00971017  RH  045%=      5-min Rain = 0
KTAT 131120Z 29020G25KT 10/M02 A30 RMK A01 T00961017  RH  046%=      5-min Rain = 0
KTAT 131125Z 29020KT 10/M02 A30 RMK A01 T00951017  RH  046%=      5-min Rain = 0
KTAT 131130Z 29019G25KT 10/M02 A2999 RMK A01 T00961016  RH  046%=      5-min Rain = 0
KTAT 131135Z 29019G24KT 10/M02 A2998 RMK A01 T00961016  RH  046%=      5-min Rain = 0
KTAT 131140Z 29020G25KT 10/M02 A2999 RMK A01 T00961016  RH  046%=      5-min Rain = 0
KTAT 131145Z 29022G30KT 10/M02 A2999 RMK A01 T00991017  RH  045%=      5-min Rain = 0
KTAT 131150Z 29023G30KT 10/M02 A2999 RMK A01 T01031017  RH  044%=      5-min Rain = 0
KTAT 131155Z 29024G33KT 10/M02 A2998 RMK A01 T01041017  RH  043%=      5-min Rain = 0
KTAT 131200Z 29023G31KT 10/M02 A2999 RMK A01 T01031017  RH  043%=      5-min Rain = 0
KTAT 131205Z 29024KT 10/M02 A2999 RMK A01 T01021017  RH  044%=      5-min Rain = 0
KTAT 131210Z 29022G27KT 10/M02 A2999 RMK A01 T01011017  RH  044%=      5-min Rain = 0
KTAT 131215Z 29021G26KT 10/M02 A2999 RMK A01 T01011017  RH  044%=      5-min Rain = 0
KTAT 131220Z 29021KT 10/M02 A30 RMK A01 T01001017  RH  044%=      5-min Rain = 0
KTAT 131225Z 29021G27KT 10/M02 A30 RMK A01 T01001017  RH  044%=      5-min Rain = 0
KTAT 131230Z 29020G26KT 10/M02 A30 RMK A01 T00991017  RH  045%=      5-min Rain = 0
KTAT 131235Z 29020G27KT 10/M02 A30 RMK A01 T01001017  RH  044%=      5-min Rain = 0
KTAT 131240Z 30019G25KT 10/M02 A30 RMK A01 T01001017  RH  044%=      5-min Rain = 0
KTAT 131245Z 30019KT 10/M02 A3001 RMK A01 T00991017  RH  044%=      5-min Rain = 0
KTAT 131250Z 30019G25KT 10/M02 A3001 RMK A01 T01001018  RH  044%=      5-min Rain = 0
KTAT 131255Z 30017G23KT 10/M02 A30 RMK A01 T00991018  RH  044%=      5-min Rain = 0
KTAT 131300Z 30016G22KT 10/M02 A30 RMK A01 T00971018  RH  045%=      5-min Rain = 0
KTAT 131305Z 30018KT 10/M02 A3001 RMK A01 T00991018  RH  045%=      5-min Rain = 0
KTAT 131310Z 30017KT 10/M02 A3001 RMK A01 T00981018  RH  045%=      5-min Rain = 0
KTAT 131315Z 30016KT 09/M02 A3001 RMK A01 T00941018  RH  046%=      5-min Rain = 0
KTAT 131320Z 30015KT 09/M02 A3001 RMK A01 T00911017  RH  047%=      5-min Rain = 0
KTAT 131325Z 29015KT 09/M02 A3001 RMK A01 T00881017  RH  048%=      5-min Rain = 0
KTAT 131330Z 29016KT 09/M02 A3002 RMK A01 T00871017  RH  048%=      5-min Rain = 0
KTAT 131335Z 29016KT 09/M02 A3002 RMK A01 T00861016  RH  049%=      5-min Rain = 0
KTAT 131340Z 29015KT 08/M02 A3002 RMK A01 T00831016  RH  050%=      5-min Rain = 0
KTAT 131345Z 29015KT 08/M02 A3002 RMK A01 T00801016  RH  051%=      5-min Rain = 0
KTAT 131350Z 28015KT 08/M02 A3002 RMK A01 T00791016  RH  052%=      5-min Rain = 0
KTAT 131355Z 29015KT 08/M02 A3002 RMK A01 T00781015  RH  052%=      5-min Rain = 0
KTAT 131400Z 29014KT 08/M02 A3002 RMK A01 T00781015  RH  053%=      5-min Rain = 0
KTAT 131405Z 29015KT 08/M01 A3003 RMK A01 T00781014  RH  053%=      5-min Rain = 0
KTAT 131410Z 29014KT 08/M01 A3003 RMK A01 T00781014  RH  053%=      5-min Rain = 0
KTAT 131415Z 29014KT 08/M01 A3003 RMK A01 T00821013  RH  052%=      5-min Rain = 0
KTAT 131420Z 29014KT 09/M01 A3003 RMK A01 T00851013  RH  051%=      5-min Rain = 0
KTAT 131425Z 29014KT 09/M01 A3003 RMK A01 T00871012  RH  050%=      5-min Rain = 0
KTAT 131430Z 29015G20KT 09/M01 A3004 RMK A01 T00931012  RH  048%=      5-min Rain = 0
KTAT 131435Z 29017KT 10/M01 A3004 RMK A01 T00981013  RH  046%=      5-min Rain = 0
KTAT 131440Z 29016KT 10/M01 A3004 RMK A01 T01001013  RH  046%=      5-min Rain = 0
KTAT 131445Z 29016KT 10/M01 A3004 RMK A01 T01021013  RH  045%=      5-min Rain = 0
KTAT 131450Z 29015KT 10/M01 A3004 RMK A01 T01031014  RH  045%=      5-min Rain = 0
KTAT 131455Z 29016KT 10/M01 A3004 RMK A01 T01031014  RH  045%=      5-min Rain = 0
KTAT 131500Z 29016KT 10/M01 A3004 RMK A01 T01041013  RH  044%=      5-min Rain = 0
KTAT 131505Z 28015KT 11/M01 A3004 RMK A01 T01051013  RH  044%=      5-min Rain = 0
KTAT 131510Z 28012KT 11/M01 A3004 RMK A01 T01061012  RH  044%=      5-min Rain = 0
KTAT 131515Z 28010KT 11/M01 A3003 RMK A01 T01091010  RH  044%=      5-min Rain = 0
KTAT 131520Z 28012KT 11/M01 A3003 RMK A01 T01131010  RH  043%=      5-min Rain = 0
KTAT 131525Z 28012KT 12/M01 A3003 RMK A01 T01151010  RH  042%=      5-min Rain = 0
KTAT 131530Z 27013KT 12/M01 A3003 RMK A01 T01171011  RH  041%=      5-min Rain = 0
KTAT 131535Z 27012KT 12/M01 A3002 RMK A01 T01221010  RH  040%=      5-min Rain = 0
KTAT 131540Z 27013G22KT 13/M01 A3003 RMK A01 T01291010  RH  039%=      5-min Rain = 0
KTAT 131545Z 28016KT 14/M02 A3002 RMK A01 T01391015  RH  035%=      5-min Rain = 0
KTAT 131550Z 29018G26KT 14/M02 A3003 RMK A01 T01431015  RH  034%=      5-min Rain = 0
KTAT 131555Z 29023G28KT 14/M02 A3003 RMK A01 T01421017  RH  034%=      5-min Rain = 0
KTAT 131600Z 29022G28KT 14/M02 A3003 RMK A01 T01411017  RH  034%=      5-min Rain = 0
KTAT 131605Z 29021G26KT 14/M02 A3003 RMK A01 T01431017  RH  034%=      5-min Rain = 0
KTAT 131610Z 29024G30KT 14/M02 A3004 RMK A01 T01431018  RH  033%=      5-min Rain = 0
KTAT 131615Z 29022G28KT 14/M02 A3003 RMK A01 T01441018  RH  033%=      5-min Rain = 0
KTAT 131620Z 29023G28KT 15/M02 A3003 RMK A01 T01471018  RH  032%=      5-min Rain = 0
KTAT 131625Z 29021G28KT 15/M02 A3002 RMK A01 T01501016  RH  032%=      5-min Rain = 0
KTAT 131630Z 29023G29KT 15/M02 A3003 RMK A01 T01531017  RH  031%=      5-min Rain = 0
KTAT 131635Z 29023G32KT 15/M02 A3003 RMK A01 T01541018  RH  031%=      5-min Rain = 0
KTAT 131640Z 29025G30KT 16/M02 A3003 RMK A01 T01561018  RH  031%=      5-min Rain = 0
KTAT 131645Z 29024G30KT 16/M02 A3004 RMK A01 T01561018  RH  030%=      5-min Rain = 0
KTAT 131650Z 29024G31KT 16/M02 A3004 RMK A01 T01571018  RH  030%=      5-min Rain = 0
KTAT 131655Z 29022G30KT 16/M02 A3003 RMK A01 T01611017  RH  030%=      5-min Rain = 0
KTAT 131700Z 30025G30KT 16/M02 A3003 RMK A01 T01611020  RH  029%=      5-min Rain = 0
KTAT 131705Z 30025G30KT 16/M02 A3002 RMK A01 T01611020  RH  029%=      5-min Rain = 0
KTAT 131710Z 30024G30KT 17/M02 A3002 RMK A01 T01651020  RH  028%=      5-min Rain = 0
KTAT 131715Z 30023G29KT 16/M02 A3002 RMK A01 T01641020  RH  028%=      5-min Rain = 0
KTAT 131720Z 30022G28KT 17/M02 A3002 RMK A01 T01691019  RH  028%=      5-min Rain = 0
KTAT 131725Z 30022G29KT 17/M02 A3002 RMK A01 T01731019  RH  027%=      5-min Rain = 0
KTAT 131730Z 30023G28KT 17/M02 A3002 RMK A01 T01731020  RH  027%=      5-min Rain = 0
KTAT 131735Z 30025G32KT 18/M02 A3002 RMK A01 T01751020  RH  027%=      5-min Rain = 0
KTAT 131740Z 30025G31KT 18/M02 A3002 RMK A01 T01791020  RH  026%=      5-min Rain = 0
KTAT 131745Z 30022G29KT 18/M02 A3001 RMK A01 T01771019  RH  026%=      5-min Rain = 0
KTAT 131750Z 29025G30KT 18/M02 A3001 RMK A01 T01751021  RH  027%=      5-min Rain = 0
KTAT 131755Z 30022G30KT 18/M02 A3001 RMK A01 T01751020  RH  027%=      5-min Rain = 0
KTAT 131800Z 29021G26KT 18/M02 A3001 RMK A01 T01751019  RH  027%=      5-min Rain = 0
KTAT 131805Z 29022KT 18/M02 A30 RMK A01 T01791020  RH  026%=      5-min Rain = 0
KTAT 131810Z 29023G28KT 18/M02 A30 RMK A01 T01811020  RH  025%=      5-min Rain = 0
KTAT 131815Z 29021G29KT 18/M02 A2999 RMK A01 T01831019  RH  025%=      5-min Rain = 0
KTAT 131820Z 29021G28KT 19/M02 A2999 RMK A01 T01861020  RH  025%=      5-min Rain = 0
KTAT 131825Z 29021G28KT 19/M02 A2998 RMK A01 T01861022  RH  025%=      5-min Rain = 0
KTAT 131830Z 29019G27KT 19/M02 A2998 RMK A01 T01941020  RH  024%=      5-min Rain = 0
KTAT 131835Z 29022G28KT 19/M02 A2999 RMK A01 T01931022  RH  024%=      5-min Rain = 0
KTAT 131840Z 29022G29KT 19/M02 A2999 RMK A01 T01921021  RH  024%=      5-min Rain = 0
KTAT 131845Z 29023G29KT 19/M02 A2998 RMK A01 T01911024  RH  023%=      5-min Rain = 0
KTAT 131850Z 29022G28KT 19/M02 A2998 RMK A01 T01901023  RH  024%=      5-min Rain = 0
KTAT 131855Z 29023G31KT 19/M02 A2998 RMK A01 T01861023  RH  024%=      5-min Rain = 0
KTAT 131900Z 29022G29KT 19/M02 A2998 RMK A01 T01871022  RH  024%=      5-min Rain = 0
KTAT 131905Z 29021G27KT 19/M02 A2998 RMK A01 T01871021  RH  025%=      5-min Rain = 0
KTAT 131910Z 29024G31KT 19/M02 A2997 RMK A01 T01871024  RH  024%=      5-min Rain = 0
KTAT 131915Z 29023G31KT 18/M02 A2997 RMK A01 T01841023  RH  025%=      5-min Rain = 0
KTAT 131920Z 28024G32KT 18/M02 A2996 RMK A01 T01811023  RH  025%=      5-min Rain = 0
KTAT 131925Z 29022G28KT 18/M02 A2996 RMK A01 T01791022  RH  026%=      5-min Rain = 0
KTAT 131930Z 28023G31KT 18/M02 A2996 RMK A01 T01781022  RH  026%=      5-min Rain = 0
KTAT 131935Z 28022G28KT 18/M02 A2996 RMK A01 T01781022  RH  026%=      5-min Rain = 0
KTAT 131940Z 28021G27KT 18/M02 A2996 RMK A01 T01781021  RH  026%=      5-min Rain = 0
KTAT 131945Z 28020G27KT 18/M02 A2995 RMK A01 T01781021  RH  026%=      5-min Rain = 0
KTAT 131950Z 28020G26KT 18/M02 A2995 RMK A01 T01791020  RH  026%=      5-min Rain = 0
KTAT 131955Z 28019G24KT 18/M02 A2995 RMK A01 T01811019  RH  026%=      5-min Rain = 0
KTAT 132000Z 28019G25KT 18/M02 A2995 RMK A01 T01801020  RH  026%=      5-min Rain = 0
KTAT 132005Z 28018G23KT 18/M02 A2995 RMK A01 T01821019  RH  026%=      5-min Rain = 0
KTAT 132010Z 28019G25KT 18/M02 A2995 RMK A01 T01821019  RH  026%=      5-min Rain = 0
KTAT 132015Z 28017G23KT 18/M02 A2994 RMK A01 T01841018  RH  025%=      5-min Rain = 0
KTAT 132020Z 29018KT 19/M02 A2994 RMK A01 T01861020  RH  025%=      5-min Rain = 0
KTAT 132025Z 29021G27KT 19/M02 A2994 RMK A01 T01891024  RH  024%=      5-min Rain = 0
KTAT 132030Z 30025G31KT 19/M03 A2994 RMK A01 T01921034  RH  021%=      5-min Rain = 0
KTAT 132035Z 30025G33KT 20/M04 A2994 RMK A01 T01971035  RH  021%=      5-min Rain = 0
KTAT 132040Z 31025G31KT 20/M04 A2993 RMK A01 T01961038  RH  020%=      5-min Rain = 0
KTAT 132045Z 30025G33KT 20/M04 A2993 RMK A01 T01991039  RH  020%=      5-min Rain = 0
KTAT 132050Z 31026G33KT 20/M04 A2993 RMK A01 T01971041  RH  020%=      5-min Rain = 0
KTAT 132055Z 30026G33KT 20/M04 A2993 RMK A01 T01971041  RH  020%=      5-min Rain = 0
KTAT 132100Z 30023G29KT 20/M04 A2993 RMK A01 T02001041  RH  019%=      5-min Rain = 0
KTAT 132105Z 29023G31KT 20/M04 A2993 RMK A01 T01991042  RH  019%=      5-min Rain = 0
KTAT 132110Z 29026G33KT 20/M05 A2993 RMK A01 T02011045  RH  019%=      5-min Rain = 0
KTAT 132115Z 29027G36KT 20/M05 A2993 RMK A01 T02001047  RH  019%=      5-min Rain = 0
KTAT 132120Z 29026G31KT 20/M05 A2994 RMK A01 T01991047  RH  019%=      5-min Rain = 0
KTAT 132125Z 29029G38KT 20/M05 A2993 RMK A01 T01961050  RH  019%=      5-min Rain = 0
KTAT 132130Z 28027G36KT 19/M05 A2993 RMK A01 T01941051  RH  019%=      5-min Rain = 0
KTAT 132135Z 29025G36KT 19/M05 A2993 RMK A01 T01941052  RH  019%=      5-min Rain = 0
KTAT 132140Z 30027G34KT 19/M06 A2993 RMK A01 T01931062  RH  017%=      5-min Rain = 0
KTAT 132145Z 30028G37KT 19/M06 A2993 RMK A01 T01941064  RH  017%=      5-min Rain = 0
KTAT 132150Z 30028G35KT 19/M07 A2993 RMK A01 T01931065  RH  017%=      5-min Rain = 0
KTAT 132155Z 30026G35KT 19/M06 A2993 RMK A01 T01901063  RH  017%=      5-min Rain = 0
KTAT 132200Z 29028G33KT 19/M06 A2992 RMK A01 T01911061  RH  018%=      5-min Rain = 0
KTAT 132205Z 29031G38KT 19/M07 A2992 RMK A01 T01931066  RH  017%=      5-min Rain = 0
KTAT 132210Z 29030G39KT 19/M07 A2993 RMK A01 T01931067  RH  017%=      5-min Rain = 0
KTAT 132215Z 30028G36KT 19/M07 A2993 RMK A01 T01921067  RH  017%=      5-min Rain = 0
KTAT 132220Z 30025G30KT 19/M06 A2993 RMK A01 T01911064  RH  017%=      5-min Rain = 0
KTAT 132225Z 29027G32KT 19/M06 A2993 RMK A01 T01891063  RH  018%=      5-min Rain = 0
KTAT 132230Z 29026G33KT 19/M06 A2993 RMK A01 T01881059  RH  018%=      5-min Rain = 0
KTAT 132235Z 30022G29KT 19/M06 A2994 RMK A01 T01871057  RH  019%=      5-min Rain = 0
KTAT 132240Z 29022G30KT 19/M06 A2994 RMK A01 T01861059  RH  018%=      5-min Rain = 0
KTAT 132245Z 30023G31KT 18/M06 A2994 RMK A01 T01831063  RH  018%=      5-min Rain = 0
KTAT 132250Z 30023G29KT 18/M07 A2994 RMK A01 T01831069  RH  017%=      5-min Rain = 0
KTAT 132255Z 30021G27KT 18/M07 A2994 RMK A01 T01831069  RH  017%=      5-min Rain = 0
KTAT 132300Z 31021G27KT 18/M07 A2995 RMK A01 T01821067  RH  018%=      5-min Rain = 0
KTAT 132305Z 31021G29KT 18/M07 A2995 RMK A01 T01811067  RH  018%=      5-min Rain = 0
KTAT 132310Z 31019G24KT 18/M06 A2995 RMK A01 T01801063  RH  019%=      5-min Rain = 0
KTAT 132315Z 30017G22KT 18/M06 A2995 RMK A01 T01781060  RH  019%=      5-min Rain = 0
KTAT 132320Z 31018G24KT 18/M06 A2995 RMK A01 T01761061  RH  019%=      5-min Rain = 0
KTAT 132325Z 31017G22KT 17/M06 A2995 RMK A01 T01741062  RH  019%=      5-min Rain = 0
KTAT 132330Z 30015KT 17/M06 A2996 RMK A01 T01711061  RH  020%=      5-min Rain = 0
KTAT 132335Z 30014G19KT 17/M06 A2995 RMK A01 T01661060  RH  021%=      5-min Rain = 0
KTAT 132340Z 31015KT 16/M06 A2996 RMK A01 T01641062  RH  021%=      5-min Rain = 0
KTAT 132345Z 31014G19KT 16/M06 A2996 RMK A01 T01611062  RH  021%=      5-min Rain = 0
KTAT 132350Z 31013KT 16/M06 A2996 RMK A01 T01581062  RH  022%=      5-min Rain = 0
KTAT 132355Z 30012KT 15/M06 A2995 RMK A01 T01541061  RH  022%=      5-min Rain = 0
KTAT 140000Z 30011KT 15/M06 A2995 RMK A01 T01491059  RH  023%=      5-min Rain = 0
KTAT 140005Z 31011KT 15/M06 A2996 RMK A01 T01451058  RH  024%=      5-min Rain = 0
KTAT 140010Z 31011KT 14/M06 A2996 RMK A01 T01411057  RH  025%=      5-min Rain = 0
KTAT 140015Z 31010KT 14/M06 A2996 RMK A01 T01381056  RH  026%=      5-min Rain = 0
KTAT 140020Z 31010KT 14/M06 A2997 RMK A01 T01351056  RH  026%=      5-min Rain = 0
KTAT 140025Z 31010KT 13/M06 A2997 RMK A01 T01341055  RH  027%=      5-min Rain = 0
KTAT 140030Z 31010KT 13/M06 A2997 RMK A01 T01311055  RH  027%=      5-min Rain = 0
KTAT 140035Z 32011KT 13/M06 A2997 RMK A01 T01301055  RH  027%=      5-min Rain = 0
KTAT 140040Z 32012KT 13/M06 A2997 RMK A01 T01331057  RH  026%=      5-min Rain = 0
KTAT 140045Z 32014KT 14/M06 A2997 RMK A01 T01351060  RH  025%=      5-min Rain = 0
KTAT 140050Z 32014KT 14/M06 A2996 RMK A01 T01381064  RH  024%=      5-min Rain = 0
KTAT 140055Z 32014KT 14/M07 A2996 RMK A01 T01391066  RH  024%=      5-min Rain = 0
KTAT 140100Z 32013KT 14/M07 A2997 RMK A01 T01361067  RH  024%=      5-min Rain = 0
KTAT 140105Z 32014KT 13/M07 A2997 RMK A01 T01341068  RH  024%=      5-min Rain = 0
KTAT 140110Z 32013KT 13/M07 A2997 RMK A01 T01331068  RH  024%=      5-min Rain = 0
KTAT 140115Z 32013KT 13/M07 A2998 RMK A01 T01311068  RH  024%=      5-min Rain = 0
KTAT 140120Z 32013KT 13/M07 A2998 RMK A01 T01281068  RH  025%=      5-min Rain = 0
KTAT 140125Z 32013KT 13/M07 A2998 RMK A01 T01271068  RH  025%=      5-min Rain = 0
KTAT 140130Z 32013KT 13/M07 A2998 RMK A01 T01251068  RH  025%=      5-min Rain = 0
KTAT 140135Z 32014KT 12/M07 A2999 RMK A01 T01241068  RH  026%=      5-min Rain = 0
KTAT 140140Z 32014KT 13/M07 A2999 RMK A01 T01271069  RH  025%=      5-min Rain = 0
KTAT 140145Z 32014KT 13/M07 A2999 RMK A01 T01291070  RH  024%=      5-min Rain = 0
KTAT 140150Z 32015KT 13/M07 A2999 RMK A01 T01301070  RH  024%=      5-min Rain = 0
KTAT 140155Z 32015KT 13/M07 A2999 RMK A01 T01311070  RH  024%=      5-min Rain = 0
KTAT 140200Z 32015KT 13/M07 A2999 RMK A01 T01311070  RH  024%=      5-min Rain = 0
KTAT 140205Z 31015KT 13/M07 A2999 RMK A01 T01301069  RH  024%=      5-min Rain = 0
KTAT 140210Z 31014KT 13/M07 A2999 RMK A01 T01281069  RH  025%=      5-min Rain = 0
KTAT 140215Z 32014KT 13/M07 A2999 RMK A01 T01271068  RH  025%=      5-min Rain = 0
KTAT 140220Z 32014KT 12/M07 A2998 RMK A01 T01241067  RH  026%=      5-min Rain = 0
KTAT 140225Z 31013KT 12/M07 A2998 RMK A01 T01221066  RH  026%=      5-min Rain = 0
KTAT 140230Z 31012KT 12/M07 A2998 RMK A01 T01191066  RH  027%=      5-min Rain = 0
KTAT 140235Z 31010KT 12/M07 A2998 RMK A01 T01161065  RH  028%=      5-min Rain = 0
KTAT 140240Z 31010KT 11/M06 A2998 RMK A01 T01121064  RH  029%=      5-min Rain = 0
KTAT 140245Z 30009KT 11/M06 A2998 RMK A01 T01081063  RH  030%=      5-min Rain = 0
KTAT 140250Z 29008KT 11/M06 A2998 RMK A01 T01051062  RH  030%=      5-min Rain = 0
KTAT 140255Z 29008KT 10/M06 A2999 RMK A01 T01001062  RH  031%=      5-min Rain = 0
KTAT 140300Z 29007KT 10/M06 A2999 RMK A01 T00951061  RH  033%=      5-min Rain = 0
KTAT 140305Z 30008KT 09/M06 A2999 RMK A01 T00911060  RH  034%=      5-min Rain = 0
KTAT 140310Z 30008KT 09/M06 A2998 RMK A01 T00881059  RH  035%=      5-min Rain = 0
KTAT 140315Z 30008KT 08/M06 A2998 RMK A01 T00841058  RH  036%=      5-min Rain = 0
KTAT 140320Z 30008KT 08/M06 A2998 RMK A01 T00821057  RH  037%=      5-min Rain = 0
KTAT 140325Z 29007KT 08/M05 A2998 RMK A01 T00781054  RH  039%=      5-min Rain = 0
KTAT 140330Z 30007KT 08/M05 A2998 RMK A01 T00751053  RH  040%=      5-min Rain = 0
KTAT 140335Z 29007KT 07/M05 A2998 RMK A01 T00721053  RH  041%=      5-min Rain = 0
KTAT 140340Z 29007KT 07/M05 A2998 RMK A01 T00691052  RH  042%=      5-min Rain = 0
KTAT 140345Z 29007KT 07/M05 A2998 RMK A01 T00691051  RH  042%=      5-min Rain = 0
KTAT 140350Z 28007KT 07/M05 A2998 RMK A01 T00671051  RH  043%=      5-min Rain = 0
KTAT 140355Z 28005KT 07/M05 A2998 RMK A01 T00651050  RH  044%=      5-min Rain = 0
KTAT 140400Z 27006KT 06/M05 A2998 RMK A01 T00631050  RH  044%=      5-min Rain = 0
KTAT 140405Z 26007KT 06/M05 A2998 RMK A01 T00561049  RH  047%=      5-min Rain = 0
KTAT 140410Z 28008KT 05/M05 A2998 RMK A01 T00511047  RH  049%=      5-min Rain = 0
KTAT 140415Z 28007KT 05/M05 A2998 RMK A01 T00531045  RH  049%=      5-min Rain = 0
KTAT 140420Z 30008KT 06/M05 A2998 RMK A01 T00571045  RH  048%=      5-min Rain = 0
KTAT 140425Z 29008KT 06/M05 A2998 RMK A01 T00581045  RH  048%=      5-min Rain = 0
KTAT 140430Z 28007KT 06/M04 A2998 RMK A01 T00561044  RH  049%=      5-min Rain = 0
KTAT 140435Z 26006KT 05/M04 A2998 RMK A01 T00511043  RH  051%=      5-min Rain = 0
KTAT 140440Z 24005KT 04/M04 A2998 RMK A01 T00441044  RH  053%=      5-min Rain = 0
KTAT 140445Z 23007KT 04/M04 A2998 RMK A01 T00371042  RH  056%=      5-min Rain = 0
KTAT 140450Z 22009KT 04/M04 A2999 RMK A01 T00371041  RH  057%=      5-min Rain = 0
KTAT 140455Z 24008KT 04/M04 A2998 RMK A01 T00401041  RH  056%=      5-min Rain = 0
KTAT 140500Z 24007KT 04/M04 A2998 RMK A01 T00411041  RH  055%=      5-min Rain = 0
KTAT 140505Z 23007KT 04/M04 A2998 RMK A01 T00391041  RH  056%=      5-min Rain = 0
KTAT 140510Z 25007KT 04/M04 A2997 RMK A01 T00371041  RH  057%=      5-min Rain = 0
KTAT 140515Z 25006KT 04/M04 A2997 RMK A01 T00351041  RH  058%=      5-min Rain = 0
KTAT 140520Z 26006KT 03/M04 A2997 RMK A01 T00331042  RH  058%=      5-min Rain = 0
KTAT 140525Z 27006KT 03/M04 A2997 RMK A01 T00321042  RH  058%=      5-min Rain = 0
KTAT 140530Z 29007KT 03/M04 A2997 RMK A01 T00321042  RH  058%=      5-min Rain = 0
KTAT 140535Z 30007KT 03/M04 A2997 RMK A01 T00291042  RH  060%=      5-min Rain = 0
KTAT 140540Z 31009KT 03/M04 A2997 RMK A01 T00271040  RH  062%=      5-min Rain = 0
KTAT 140545Z 31009KT 03/M04 A2997 RMK A01 T00291037  RH  062%=      5-min Rain = 0
KTAT 140550Z 30009KT 04/M04 A2997 RMK A01 T00351037  RH  059%=      5-min Rain = 0
KTAT 140555Z 29010KT 04/M04 A2997 RMK A01 T00381037  RH  058%=      5-min Rain = 0

Page generated in 0.0083 seconds.